createdAt,value
2022-12-16T00:00:29.756Z,-86
2022-12-16T00:03:04.817Z,-86
2022-12-16T00:05:33.488Z,-86
2022-12-16T00:08:01.945Z,-85
2022-12-16T00:10:51.853Z,-86
2022-12-16T00:13:20.652Z,-85
2022-12-16T00:15:51.738Z,-86
2022-12-16T00:18:20.517Z,-85
2022-12-16T00:20:53.190Z,-87
2022-12-16T00:23:27.223Z,-84
2022-12-16T00:25:57.322Z,-84
2022-12-16T00:28:26.279Z,-84
2022-12-16T00:30:57.050Z,-84
2022-12-16T00:33:27.675Z,-83
2022-12-16T00:35:57.282Z,-85
2022-12-16T00:38:27.937Z,-85
2022-12-16T00:40:57.900Z,-86
2022-12-16T00:43:28.632Z,-86
2022-12-16T00:45:58.419Z,-86
2022-12-16T00:48:27.056Z,-86
2022-12-16T00:50:56.566Z,-86
2022-12-16T00:53:26.526Z,-86
2022-12-16T00:56:05.600Z,-86
2022-12-16T00:58:34.423Z,-86
2022-12-16T01:01:03.791Z,-86
2022-12-16T01:03:32.533Z,-86
2022-12-16T01:06:01.279Z,-86
2022-12-16T01:08:29.776Z,-86
2022-12-16T01:10:59.071Z,-86
2022-12-16T01:13:29.161Z,-86
2022-12-16T01:16:02.405Z,-86
2022-12-16T01:18:31.991Z,-86
2022-12-16T01:21:05.521Z,-86
2022-12-16T01:23:34.790Z,-85
2022-12-16T01:26:08.393Z,-85
2022-12-16T01:28:38.385Z,-87
2022-12-16T01:31:07.149Z,-85
2022-12-16T01:33:38.601Z,-84
2022-12-16T01:36:09.865Z,-84
2022-12-16T01:38:38.939Z,-84
2022-12-16T01:41:07.686Z,-84
2022-12-16T01:43:40.658Z,-85
2022-12-16T01:46:17.818Z,-86
2022-12-16T01:48:53.662Z,-86
2022-12-16T01:51:31.693Z,-86
2022-12-16T01:54:06.792Z,-86
2022-12-16T01:56:41.035Z,-85
2022-12-16T01:59:12.899Z,-86
2022-12-16T02:01:41.666Z,-86
2022-12-16T02:04:10.462Z,-86
2022-12-16T02:06:44.071Z,-86
2022-12-16T02:09:16.244Z,-86
2022-12-16T02:12:15.248Z,-86
2022-12-16T02:15:16.485Z,-86
2022-12-16T02:17:57.845Z,-86
2022-12-16T02:21:07.824Z,-86
2022-12-16T02:24:36.619Z,-86
2022-12-16T02:27:47.035Z,-87
2022-12-16T02:30:48.997Z,-86
2022-12-16T02:34:14.256Z,-86
2022-12-16T02:37:12.101Z,-86
2022-12-16T02:39:49.688Z,-86
2022-12-16T02:42:31.838Z,-86
2022-12-16T02:45:05.954Z,-86
2022-12-16T02:47:35.941Z,-86
2022-12-16T02:50:05.255Z,-86
2022-12-16T02:52:36.594Z,-86
2022-12-16T02:55:10.269Z,-86
2022-12-16T02:58:06.545Z,-86
2022-12-16T03:00:53.576Z,-85
2022-12-16T03:03:33.904Z,-86
2022-12-16T03:06:04.092Z,-86
2022-12-16T03:08:38.155Z,-86
2022-12-16T03:11:08.903Z,-86
2022-12-16T03:13:42.895Z,-86
2022-12-16T03:16:15.398Z,-86
2022-12-16T03:18:50.430Z,-86
2022-12-16T03:21:22.652Z,-85
2022-12-16T03:23:58.745Z,-86
2022-12-16T03:26:34.578Z,-86
2022-12-16T03:29:10.822Z,-86
2022-12-16T03:31:45.120Z,-85
2022-12-16T03:34:26.829Z,-86
2022-12-16T03:37:02.186Z,-85
2022-12-16T03:39:34.340Z,-86
2022-12-16T03:42:04.867Z,-86
2022-12-16T03:44:37.183Z,-85
2022-12-16T03:47:06.604Z,-86
2022-12-16T03:49:36.510Z,-86
2022-12-16T03:52:05.400Z,-86
2022-12-16T03:54:33.954Z,-86
2022-12-16T03:57:02.562Z,-86
2022-12-16T03:59:31.096Z,-86
2022-12-16T04:02:00.274Z,-86
2022-12-16T04:04:29.291Z,-86
2022-12-16T04:07:16.398Z,-86
2022-12-16T04:09:44.884Z,-86
2022-12-16T04:12:30.589Z,-86
2022-12-16T04:15:16.569Z,-85
2022-12-16T04:18:02.543Z,-86
2022-12-16T04:20:55.216Z,-85
2022-12-16T04:23:46.624Z,-86
2022-12-16T04:26:15.413Z,-86
2022-12-16T04:28:53.640Z,-86
2022-12-16T04:31:22.385Z,-86
2022-12-16T04:34:08.497Z,-86
2022-12-16T04:36:54.341Z,-86
2022-12-16T04:39:41.747Z,-86
2022-12-16T04:42:27.698Z,-86
2022-12-16T04:45:13.643Z,-86
2022-12-16T04:47:59.828Z,-86
2022-12-16T04:50:45.757Z,-86
2022-12-16T04:53:32.129Z,-86
2022-12-16T04:56:19.684Z,-84
2022-12-16T04:59:05.701Z,-82
2022-12-16T05:01:51.679Z,-84
2022-12-16T05:04:37.592Z,-86
2022-12-16T05:07:23.385Z,-86
2022-12-16T05:10:09.360Z,-86
2022-12-16T05:12:56.372Z,-86
2022-12-16T05:15:42.579Z,-86
2022-12-16T05:18:29.596Z,-86
2022-12-16T05:21:17.085Z,-86
2022-12-16T05:24:03.624Z,-85
2022-12-16T05:26:49.812Z,-85
2022-12-16T05:29:37.350Z,-86
2022-12-16T05:32:23.357Z,-85
2022-12-16T05:35:09.452Z,-86
2022-12-16T05:37:55.394Z,-85
2022-12-16T05:40:41.701Z,-86
2022-12-16T05:43:27.646Z,-87
2022-12-16T05:46:14.818Z,-85
2022-12-16T05:49:00.736Z,-85
2022-12-16T05:51:46.829Z,-85
2022-12-16T05:54:32.696Z,-85
2022-12-16T05:57:18.876Z,-85
2022-12-16T06:00:04.779Z,-85
2022-12-16T06:02:52.203Z,-84
2022-12-16T06:05:38.292Z,-86
2022-12-16T06:08:24.220Z,-86
2022-12-16T06:11:10.103Z,-86
2022-12-16T06:13:56.274Z,-85
2022-12-16T06:16:42.165Z,-86
2022-12-16T06:19:29.493Z,-86
2022-12-16T06:22:15.496Z,-87
2022-12-16T06:25:01.427Z,-86
2022-12-16T06:27:47.513Z,-87
2022-12-16T06:30:33.352Z,-87
2022-12-16T06:33:19.268Z,-87
2022-12-16T06:36:03.126Z,-86
2022-12-16T06:38:48.972Z,-85
2022-12-16T06:41:35.246Z,-84
2022-12-16T06:44:21.282Z,-83
2022-12-16T06:47:09.406Z,-84
2022-12-16T06:49:55.517Z,-85
2022-12-16T06:52:43.035Z,-87
2022-12-16T06:55:28.966Z,-87
2022-12-16T06:58:16.875Z,-86
2022-12-16T07:01:03.886Z,-85
2022-12-16T07:03:55.361Z,-86
2022-12-16T07:06:40.998Z,-86
2022-12-16T07:09:28.576Z,-85
2022-12-16T07:12:14.592Z,-85
2022-12-16T07:15:00.549Z,-84
2022-12-16T07:17:46.528Z,-85
2022-12-16T07:20:32.594Z,-85
2022-12-16T07:23:20.048Z,-85
2022-12-16T07:26:08.637Z,-84
2022-12-16T07:28:54.692Z,-85
2022-12-16T07:31:41.182Z,-84
2022-12-16T07:34:26.988Z,-85
2022-12-16T07:37:13.042Z,-84
2022-12-16T07:39:59.042Z,-84
2022-12-16T07:42:46.737Z,-85
2022-12-16T07:45:32.692Z,-85
2022-12-16T07:48:18.730Z,-85
2022-12-16T07:51:04.830Z,-85
2022-12-16T07:53:50.845Z,-85
2022-12-16T07:56:36.935Z,-88
2022-12-16T07:59:24.580Z,-88
2022-12-16T08:02:10.713Z,-88
2022-12-16T08:04:56.867Z,-88
2022-12-16T08:07:42.981Z,-89
2022-12-16T08:10:29.229Z,-89
2022-12-16T08:13:32.203Z,-89
2022-12-16T08:16:19.640Z,-89
2022-12-16T08:19:10.754Z,-92
2022-12-16T08:21:57.385Z,-89
2022-12-16T08:24:46.952Z,-88
2022-12-16T08:27:35.701Z,-88
2022-12-16T08:30:22.132Z,-88
2022-12-16T08:33:18.346Z,-89
2022-12-16T08:36:05.530Z,-88
2022-12-16T08:38:51.837Z,-89
2022-12-16T08:41:38.861Z,-88
2022-12-16T08:44:24.881Z,-89
2022-12-16T08:47:10.941Z,-88
2022-12-16T08:50:01.642Z,-88
2022-12-16T08:52:49.414Z,-88
2022-12-16T08:55:35.795Z,-88
2022-12-16T08:58:21.893Z,-88
2022-12-16T09:01:07.446Z,-88
2022-12-16T09:03:54.220Z,-88
2022-12-16T09:06:41.592Z,-88
2022-12-16T09:09:27.879Z,-88
2022-12-16T09:12:13.921Z,-89
2022-12-16T09:14:59.893Z,-88
2022-12-16T09:17:45.923Z,-88
2022-12-16T09:20:31.849Z,-88
2022-12-16T09:23:23.005Z,-89
2022-12-16T09:26:08.929Z,-89
2022-12-16T09:28:57.162Z,-89
2022-12-16T09:31:43.091Z,-89
2022-12-16T09:34:43.544Z,-89
2022-12-16T09:37:29.876Z,-89
2022-12-16T09:40:17.151Z,-89
2022-12-16T09:43:12.559Z,-90
2022-12-16T09:46:11.534Z,-91
2022-12-16T09:49:08.117Z,-88
2022-12-16T09:51:57.526Z,-89
2022-12-16T09:54:50.426Z,-93
2022-12-16T09:57:40.427Z,-88
2022-12-16T10:00:38.848Z,-88
2022-12-16T10:03:38.363Z,-89
2022-12-16T10:06:37.262Z,-89
2022-12-16T10:09:33.184Z,-88
2022-12-16T10:12:31.828Z,-90
2022-12-16T10:15:34.680Z,-89
2022-12-16T10:18:32.935Z,-89
2022-12-16T10:21:23.936Z,-88
2022-12-16T10:24:27.094Z,-89
2022-12-16T10:27:24.290Z,-89
2022-12-16T10:30:11.867Z,-89
2022-12-16T10:33:06.295Z,-90
2022-12-16T10:36:00.969Z,-89
2022-12-16T10:38:59.366Z,-90
2022-12-16T10:41:52.086Z,-89
2022-12-16T10:44:44.795Z,-89
2022-12-16T10:47:30.869Z,-89
2022-12-16T10:50:18.346Z,-89
2022-12-16T10:53:12.913Z,-89
2022-12-16T10:56:16.974Z,-89
2022-12-16T10:59:11.605Z,-89
2022-12-16T11:02:09.523Z,-89
2022-12-16T11:04:57.382Z,-89
2022-12-16T11:07:53.391Z,-89
2022-12-16T11:10:49.682Z,-88
2022-12-16T11:13:45.829Z,-89
2022-12-16T11:16:35.986Z,-89
2022-12-16T11:19:22.889Z,-88
2022-12-16T11:22:09.230Z,-88
2022-12-16T11:24:57.139Z,-88
2022-12-16T11:27:45.781Z,-88
2022-12-16T11:30:39.504Z,-88
2022-12-16T11:33:42.597Z,-88
2022-12-16T11:36:36.644Z,-88
2022-12-16T11:39:26.192Z,-88
2022-12-16T11:42:15.338Z,-89
2022-12-16T11:45:06.853Z,-88
2022-12-16T11:47:58.350Z,-88
2022-12-16T11:50:47.249Z,-89
2022-12-16T11:53:50.937Z,-89
2022-12-16T11:56:42.579Z,-89
2022-12-16T11:59:43.555Z,-89
2022-12-16T12:02:39.749Z,-89
2022-12-16T12:05:31.021Z,-88
2022-12-16T12:08:31.559Z,-88
2022-12-16T12:11:36.564Z,-88
2022-12-16T12:14:36.230Z,-88
2022-12-16T12:17:44.322Z,-89
2022-12-16T12:20:59.067Z,-89
2022-12-16T12:23:59.604Z,-89
2022-12-16T12:26:52.184Z,-90
2022-12-16T12:29:58.326Z,-89
2022-12-16T12:33:01.115Z,-87
2022-12-16T12:36:10.046Z,-87
2022-12-16T12:39:11.090Z,-87
2022-12-16T12:42:15.782Z,-87
2022-12-16T12:45:20.605Z,-87
2022-12-16T12:48:22.263Z,-87
2022-12-16T12:51:19.910Z,-87
2022-12-16T13:00:37.610Z,-96
2022-12-16T13:06:08.300Z,-88
2022-12-16T13:09:13.136Z,-82
2022-12-16T13:12:42.488Z,-83
2022-12-16T13:15:38.500Z,-83
2022-12-16T13:18:44.121Z,-83
2022-12-16T13:22:06.386Z,-83
2022-12-16T13:25:10.462Z,-83
2022-12-16T13:28:13.266Z,-85
2022-12-16T13:31:25.288Z,-83
2022-12-16T13:34:15.671Z,-83
2022-12-16T13:37:12.491Z,-83
2022-12-16T13:40:01.790Z,-83
2022-12-16T13:43:13.001Z,-83
2022-12-16T13:46:03.235Z,-82
2022-12-16T13:48:59.891Z,-82
2022-12-16T13:52:24.140Z,-84
2022-12-16T13:55:33.836Z,-83
2022-12-16T13:58:29.892Z,-89
2022-12-16T14:01:28.570Z,-91
2022-12-16T14:04:31.871Z,-89
2022-12-16T14:07:24.856Z,-89
2022-12-16T14:10:14.118Z,-89
2022-12-16T14:13:21.326Z,-90
2022-12-16T14:16:24.038Z,-91
2022-12-16T14:19:30.547Z,-92
2022-12-16T14:22:35.705Z,-92
2022-12-16T14:25:31.726Z,-91
2022-12-16T14:28:20.885Z,-90
2022-12-16T14:31:07.093Z,-92
2022-12-16T14:33:55.110Z,-89
2022-12-16T14:36:44.861Z,-89
2022-12-16T14:39:38.999Z,-91
2022-12-16T14:42:38.199Z,-89
2022-12-16T14:45:40.334Z,-90
2022-12-16T14:48:47.465Z,-90
2022-12-16T14:51:47.252Z,-89
2022-12-16T14:54:44.894Z,-90
2022-12-16T14:57:36.429Z,-89
2022-12-16T15:00:34.578Z,-91
2022-12-16T15:03:34.020Z,-91
2022-12-16T15:06:23.512Z,-89
2022-12-16T15:09:20.826Z,-87
2022-12-16T15:12:10.371Z,-88
2022-12-16T15:15:01.051Z,-88
2022-12-16T15:17:51.496Z,-88
2022-12-16T15:20:42.979Z,-88
2022-12-16T15:23:53.006Z,-88
2022-12-16T15:26:43.544Z,-88
2022-12-16T15:29:51.314Z,-88
2022-12-16T15:32:55.062Z,-88
2022-12-16T15:35:48.175Z,-88
2022-12-16T15:38:47.150Z,-88
2022-12-16T15:41:48.934Z,-88
2022-12-16T15:44:36.832Z,-88
2022-12-16T15:47:24.262Z,-87
2022-12-16T15:50:10.936Z,-87
2022-12-16T15:53:00.693Z,-88
2022-12-16T15:55:52.303Z,-87
2022-12-16T15:58:46.551Z,-89
2022-12-16T16:01:35.896Z,-89
2022-12-16T16:04:22.965Z,-91
2022-12-16T16:07:11.632Z,-91
2022-12-16T16:09:59.178Z,-89
2022-12-16T16:12:45.471Z,-88
2022-12-16T16:15:33.834Z,-88
2022-12-16T16:18:23.267Z,-89
2022-12-16T16:21:10.773Z,-90
2022-12-16T16:23:56.599Z,-87
2022-12-16T16:26:46.233Z,-88
2022-12-16T16:29:32.723Z,-88
2022-12-16T16:32:20.932Z,-88
2022-12-16T16:35:07.001Z,-87
2022-12-16T16:37:53.228Z,-88
2022-12-16T16:40:45.782Z,-88
2022-12-16T16:43:32.435Z,-88
2022-12-16T16:46:18.830Z,-88
2022-12-16T16:49:06.373Z,-88
2022-12-16T16:51:52.266Z,-88
2022-12-16T16:54:38.465Z,-87
2022-12-16T16:57:27.171Z,-86
2022-12-16T17:00:13.182Z,-87
2022-12-16T17:02:59.212Z,-89
2022-12-16T17:05:46.676Z,-86
2022-12-16T17:08:32.696Z,-88
2022-12-16T17:11:18.578Z,-88
2022-12-16T17:14:04.471Z,-87
2022-12-16T17:16:50.396Z,-88
2022-12-16T17:19:36.376Z,-88
2022-12-16T17:22:25.989Z,-88
2022-12-16T17:25:11.951Z,-88
2022-12-16T17:28:02.445Z,-88
2022-12-16T17:30:47.811Z,-88
2022-12-16T17:33:34.829Z,-89
2022-12-16T17:36:21.143Z,-88
2022-12-16T17:39:09.652Z,-89
2022-12-16T17:41:55.688Z,-88
2022-12-16T17:44:44.097Z,-87
2022-12-16T17:47:30.460Z,-88
2022-12-16T17:50:19.151Z,-88
2022-12-16T17:53:06.028Z,-87
2022-12-16T17:55:54.333Z,-87
2022-12-16T17:58:47.314Z,-87
2022-12-16T18:01:33.522Z,-87
2022-12-16T18:04:19.630Z,-88
2022-12-16T18:07:05.707Z,-87
2022-12-16T18:09:51.509Z,-88
2022-12-16T18:12:39.596Z,-89
2022-12-16T18:15:26.930Z,-89
2022-12-16T18:18:12.901Z,-89
2022-12-16T18:20:58.930Z,-89
2022-12-16T18:23:48.412Z,-89
2022-12-16T18:26:35.101Z,-89
2022-12-16T18:29:22.810Z,-89
2022-12-16T18:32:08.835Z,-88
2022-12-16T18:34:55.291Z,-89
2022-12-16T18:37:42.523Z,-89
2022-12-16T18:40:29.695Z,-88
2022-12-16T18:43:15.728Z,-88
2022-12-16T18:46:11.987Z,-88
2022-12-16T18:48:58.051Z,-88
2022-12-16T18:51:44.207Z,-89
2022-12-16T18:54:30.201Z,-88
2022-12-16T18:57:16.531Z,-88
2022-12-16T19:00:02.670Z,-88
2022-12-16T19:02:50.209Z,-88
2022-12-16T19:05:36.479Z,-88
2022-12-16T19:08:22.799Z,-88
2022-12-16T19:11:17.196Z,-88
2022-12-16T19:14:03.125Z,-88
2022-12-16T19:16:49.179Z,-89
2022-12-16T19:19:36.696Z,-88
2022-12-16T19:22:19.223Z,-88
2022-12-16T19:25:04.993Z,-87
2022-12-16T19:27:50.976Z,-87
2022-12-16T19:30:38.210Z,-88
2022-12-16T19:33:24.649Z,-89
2022-12-16T19:36:15.463Z,-88
2022-12-16T19:39:01.617Z,-89
2022-12-16T19:41:59.177Z,-89
2022-12-16T19:44:44.994Z,-88
2022-12-16T19:47:31.242Z,-89
2022-12-16T19:50:17.405Z,-88
2022-12-16T19:53:04.869Z,-88
2022-12-16T19:55:53.040Z,-89
2022-12-16T19:58:41.660Z,-88
2022-12-16T20:01:28.429Z,-89
2022-12-16T20:04:14.549Z,-89
2022-12-16T20:06:59.950Z,-88
2022-12-16T20:09:47.389Z,-88
2022-12-16T20:12:33.371Z,-89
2022-12-16T20:15:19.534Z,-89
2022-12-16T20:18:05.500Z,-89
2022-12-16T20:20:51.851Z,-89
2022-12-16T20:23:38.252Z,-89
2022-12-16T20:26:31.407Z,-89
2022-12-16T20:29:17.201Z,-88
2022-12-16T20:32:11.659Z,-89
2022-12-16T20:34:57.483Z,-88
2022-12-16T20:37:43.612Z,-88
2022-12-16T20:40:30.017Z,-88
2022-12-16T20:43:17.501Z,-89
2022-12-16T20:46:03.540Z,-89
2022-12-16T20:48:49.511Z,-89
2022-12-16T20:51:35.586Z,-88
2022-12-16T20:54:21.404Z,-88
2022-12-16T20:57:12.498Z,-89
2022-12-16T21:00:12.282Z,-89
2022-12-16T21:02:58.818Z,-89
2022-12-16T21:05:45.003Z,-89
2022-12-16T21:08:45.717Z,-88
2022-12-16T21:11:34.412Z,-88
2022-12-16T21:14:20.261Z,-89
2022-12-16T21:17:07.737Z,-88
2022-12-16T21:19:53.984Z,-88
2022-12-16T21:22:41.944Z,-88
2022-12-16T21:25:28.422Z,-88
2022-12-16T21:28:16.446Z,-88
2022-12-16T21:31:02.928Z,-88
2022-12-16T21:33:50.386Z,-88
2022-12-16T21:36:36.602Z,-88
2022-12-16T21:39:23.095Z,-88
2022-12-16T21:42:09.007Z,-89
2022-12-16T21:44:56.352Z,-88
2022-12-16T21:47:42.601Z,-88
2022-12-16T21:50:29.796Z,-88
2022-12-16T21:53:15.810Z,-88
2022-12-16T21:56:01.685Z,-88
2022-12-16T21:58:47.768Z,-88
2022-12-16T22:01:34.083Z,-89
2022-12-16T22:04:20.175Z,-88
2022-12-16T22:07:07.524Z,-88
2022-12-16T22:09:53.585Z,-87
2022-12-16T22:12:42.745Z,-88
2022-12-16T22:15:29.532Z,-89
2022-12-16T22:18:15.797Z,-88
2022-12-16T22:21:01.816Z,-88
2022-12-16T22:23:49.201Z,-87
2022-12-16T22:26:35.388Z,-87
2022-12-16T22:29:21.768Z,-87
2022-12-16T22:32:07.896Z,-87
2022-12-16T22:34:53.866Z,-86
2022-12-16T22:37:41.561Z,-87
2022-12-16T22:40:29.849Z,-87
2022-12-16T22:43:15.799Z,-87
2022-12-16T22:46:02.282Z,-87
2022-12-16T22:49:00.615Z,-87
2022-12-16T22:51:46.735Z,-87
2022-12-16T22:54:33.012Z,-87
2022-12-16T22:57:20.452Z,-87
2022-12-16T23:00:06.463Z,-87
2022-12-16T23:02:52.893Z,-85
2022-12-16T23:05:42.132Z,-86
2022-12-16T23:08:28.266Z,-87
2022-12-16T23:11:17.246Z,-88
2022-12-16T23:14:09.890Z,-88
2022-12-16T23:16:55.683Z,-87
2022-12-16T23:19:42.594Z,-87
2022-12-16T23:22:28.744Z,-87
2022-12-16T23:25:14.801Z,-87
2022-12-16T23:28:00.881Z,-87
2022-12-16T23:30:48.307Z,-88
2022-12-16T23:33:34.786Z,-88
2022-12-16T23:36:21.257Z,-87
2022-12-16T23:39:07.266Z,-88
2022-12-16T23:41:53.418Z,-88
2022-12-16T23:44:42.893Z,-88
2022-12-16T23:47:30.399Z,-88
2022-12-16T23:50:16.550Z,-87
2022-12-16T23:53:02.585Z,-87
2022-12-16T23:55:48.946Z,-87
2022-12-16T23:58:34.720Z,-88
